sensor_id;sensor_type;location;lat;lon;timestamp;temperature;humidity
66128;DHT22;52925;52.436;-1.952;2023-03-24T00:00:50;10.60;92.10
66128;DHT22;52925;52.436;-1.952;2023-03-24T00:02:11;10.70;92.20
66128;DHT22;52925;52.436;-1.952;2023-03-24T00:03:32;10.70;92.20
66128;DHT22;52925;52.436;-1.952;2023-03-24T00:04:52;10.70;92.10
66128;DHT22;52925;52.436;-1.952;2023-03-24T00:08:53;10.70;92.10
66128;DHT22;52925;52.436;-1.952;2023-03-24T00:10:16;10.70;92.10
66128;DHT22;52925;52.436;-1.952;2023-03-24T00:11:36;10.70;92.10
66128;DHT22;52925;52.436;-1.952;2023-03-24T00:12:57;10.70;92.00
66128;DHT22;52925;52.436;-1.952;2023-03-24T00:14:18;10.70;92.00
66128;DHT22;52925;52.436;-1.952;2023-03-24T00:15:39;10.70;92.00
66128;DHT22;52925;52.436;-1.952;2023-03-24T00:16:59;10.70;92.00
66128;DHT22;52925;52.436;-1.952;2023-03-24T00:18:19;10.70;92.00
66128;DHT22;52925;52.436;-1.952;2023-03-24T00:19:40;10.70;92.00
66128;DHT22;52925;52.436;-1.952;2023-03-24T00:21:04;10.70;92.00
66128;DHT22;52925;52.436;-1.952;2023-03-24T00:22:25;10.70;92.10
66128;DHT22;52925;52.436;-1.952;2023-03-24T00:23:47;10.70;92.10
66128;DHT22;52925;52.436;-1.952;2023-03-24T00:25:10;10.70;92.00
66128;DHT22;52925;52.436;-1.952;2023-03-24T00:26:31;10.60;92.00
66128;DHT22;52925;52.436;-1.952;2023-03-24T00:27:53;10.60;92.10
66128;DHT22;52925;52.436;-1.952;2023-03-24T00:29:13;10.70;92.10
66128;DHT22;52925;52.436;-1.952;2023-03-24T00:30:34;10.70;92.10
66128;DHT22;52925;52.436;-1.952;2023-03-24T00:31:54;10.70;92.00
66128;DHT22;52925;52.436;-1.952;2023-03-24T05:30:43;9.50;91.80
66128;DHT22;52925;52.436;-1.952;2023-03-24T05:32:16;9.50;92.00
66128;DHT22;52925;52.436;-1.952;2023-03-24T05:33:37;9.40;92.00
66128;DHT22;52925;52.436;-1.952;2023-03-24T05:34:58;9.40;91.90
66128;DHT22;52925;52.436;-1.952;2023-03-24T05:36:25;9.50;92.10
66128;DHT22;52925;52.436;-1.952;2023-03-24T05:37:48;9.40;92.00
66128;DHT22;52925;52.436;-1.952;2023-03-24T05:39:08;9.40;92.00
66128;DHT22;52925;52.436;-1.952;2023-03-24T05:40:42;9.50;92.00
66128;DHT22;52925;52.436;-1.952;2023-03-24T05:42:05;9.50;91.90
66128;DHT22;52925;52.436;-1.952;2023-03-24T05:43:26;9.50;92.00
66128;DHT22;52925;52.436;-1.952;2023-03-24T05:45:00;9.50;91.90
66128;DHT22;52925;52.436;-1.952;2023-03-24T05:46:22;9.50;91.90
66128;DHT22;52925;52.436;-1.952;2023-03-24T05:47:45;9.50;91.80
66128;DHT22;52925;52.436;-1.952;2023-03-24T05:49:07;9.50;91.90
66128;DHT22;52925;52.436;-1.952;2023-03-24T05:50:33;9.50;91.80
66128;DHT22;52925;52.436;-1.952;2023-03-24T05:51:54;9.50;91.90
66128;DHT22;52925;52.436;-1.952;2023-03-24T05:53:15;9.60;91.90
66128;DHT22;52925;52.436;-1.952;2023-03-24T05:54:59;9.50;91.80
66128;DHT22;52925;52.436;-1.952;2023-03-24T05:56:20;9.50;91.80
66128;DHT22;52925;52.436;-1.952;2023-03-24T05:57:57;9.50;91.90
66128;DHT22;52925;52.436;-1.952;2023-03-24T05:59:30;9.50;91.80
66128;DHT22;52925;52.436;-1.952;2023-03-24T06:01:06;9.50;91.80
66128;DHT22;52925;52.436;-1.952;2023-03-24T06:02:31;9.60;91.80
66128;DHT22;52925;52.436;-1.952;2023-03-24T06:03:57;9.60;91.80
66128;DHT22;52925;52.436;-1.952;2023-03-24T06:05:18;9.60;91.70
66128;DHT22;52925;52.436;-1.952;2023-03-24T06:06:39;9.60;91.80
66128;DHT22;52925;52.436;-1.952;2023-03-24T06:08:05;9.60;91.70
66128;DHT22;52925;52.436;-1.952;2023-03-24T06:09:30;9.60;91.70
66128;DHT22;52925;52.436;-1.952;2023-03-24T06:10:51;9.60;91.70
66128;DHT22;52925;52.436;-1.952;2023-03-24T06:12:14;9.70;91.70
66128;DHT22;52925;52.436;-1.952;2023-03-24T06:13:45;9.60;91.60
66128;DHT22;52925;52.436;-1.952;2023-03-24T06:15:07;9.60;91.70
66128;DHT22;52925;52.436;-1.952;2023-03-24T06:16:27;9.60;91.70
66128;DHT22;52925;52.436;-1.952;2023-03-24T06:17:57;9.60;91.70
66128;DHT22;52925;52.436;-1.952;2023-03-24T06:19:30;9.60;91.60
66128;DHT22;52925;52.436;-1.952;2023-03-24T06:21:09;9.60;91.70
66128;DHT22;52925;52.436;-1.952;2023-03-24T06:22:31;9.60;91.70
66128;DHT22;52925;52.436;-1.952;2023-03-24T06:23:51;9.60;91.80
66128;DHT22;52925;52.436;-1.952;2023-03-24T06:25:20;9.60;91.70
66128;DHT22;52925;52.436;-1.952;2023-03-24T06:26:56;9.60;91.70
66128;DHT22;52925;52.436;-1.952;2023-03-24T06:28:20;9.70;91.70
66128;DHT22;52925;52.436;-1.952;2023-03-24T06:29:45;9.70;91.70
66128;DHT22;52925;52.436;-1.952;2023-03-24T06:31:07;9.60;91.60
66128;DHT22;52925;52.436;-1.952;2023-03-24T06:32:37;9.60;91.60
66128;DHT22;52925;52.436;-1.952;2023-03-24T06:33:59;9.70;91.70
66128;DHT22;52925;52.436;-1.952;2023-03-24T06:35:20;9.60;91.70
66128;DHT22;52925;52.436;-1.952;2023-03-24T06:36:47;9.60;91.80
66128;DHT22;52925;52.436;-1.952;2023-03-24T06:38:08;9.60;91.70
66128;DHT22;52925;52.436;-1.952;2023-03-24T06:39:30;9.60;91.80
66128;DHT22;52925;52.436;-1.952;2023-03-24T06:40:51;9.60;91.80
66128;DHT22;52925;52.436;-1.952;2023-03-24T06:42:12;9.50;91.80
66128;DHT22;52925;52.436;-1.952;2023-03-24T06:43:33;9.60;91.80
66128;DHT22;52925;52.436;-1.952;2023-03-24T06:44:54;9.60;91.80
66128;DHT22;52925;52.436;-1.952;2023-03-24T06:46:14;9.60;91.80
66128;DHT22;52925;52.436;-1.952;2023-03-24T06:47:38;9.60;91.80
66128;DHT22;52925;52.436;-1.952;2023-03-24T06:49:01;9.60;91.90
66128;DHT22;52925;52.436;-1.952;2023-03-24T18:25:11;10.90;91.20
66128;DHT22;52925;52.436;-1.952;2023-03-24T18:26:33;10.90;91.10
66128;DHT22;52925;52.436;-1.952;2023-03-24T18:27:53;10.90;91.20
66128;DHT22;52925;52.436;-1.952;2023-03-24T18:29:15;10.90;91.10
66128;DHT22;52925;52.436;-1.952;2023-03-24T18:30:36;10.90;91.30
66128;DHT22;52925;52.436;-1.952;2023-03-24T18:31:57;10.90;91.00
66128;DHT22;52925;52.436;-1.952;2023-03-24T18:33:18;10.90;91.10
66128;DHT22;52925;52.436;-1.952;2023-03-24T18:34:40;11.00;91.20
66128;DHT22;52925;52.436;-1.952;2023-03-24T18:36:03;11.00;91.10
66128;DHT22;52925;52.436;-1.952;2023-03-24T18:37:24;10.90;90.90
66128;DHT22;52925;52.436;-1.952;2023-03-24T18:38:45;11.00;91.20
66128;DHT22;52925;52.436;-1.952;2023-03-24T18:40:07;10.90;91.00
66128;DHT22;52925;52.436;-1.952;2023-03-24T18:41:29;10.80;90.90
66128;DHT22;52925;52.436;-1.952;2023-03-24T18:42:50;10.80;91.00
66128;DHT22;52925;52.436;-1.952;2023-03-24T18:44:12;10.80;91.10
66128;DHT22;52925;52.436;-1.952;2023-03-24T18:45:33;10.80;90.90
66128;DHT22;52925;52.436;-1.952;2023-03-24T18:46:53;10.80;91.10
66128;DHT22;52925;52.436;-1.952;2023-03-24T18:48:14;10.80;91.10
66128;DHT22;52925;52.436;-1.952;2023-03-24T18:49:35;10.80;91.10
66128;DHT22;52925;52.436;-1.952;2023-03-24T18:50:56;10.80;90.90
66128;DHT22;52925;52.436;-1.952;2023-03-24T18:52:16;10.90;90.70
66128;DHT22;52925;52.436;-1.952;2023-03-24T18:53:38;10.80;91.00
66128;DHT22;52925;52.436;-1.952;2023-03-24T18:54:58;10.80;90.70
66128;DHT22;52925;52.436;-1.952;2023-03-24T18:56:21;10.80;91.00
66128;DHT22;52925;52.436;-1.952;2023-03-24T18:57:43;10.80;91.10
66128;DHT22;52925;52.436;-1.952;2023-03-24T18:59:04;10.80;91.10
66128;DHT22;52925;52.436;-1.952;2023-03-24T19:00:25;10.80;91.20
66128;DHT22;52925;52.436;-1.952;2023-03-24T19:01:46;10.80;91.10
66128;DHT22;52925;52.436;-1.952;2023-03-24T19:03:09;10.80;91.00
66128;DHT22;52925;52.436;-1.952;2023-03-24T19:04:29;10.70;90.90
66128;DHT22;52925;52.436;-1.952;2023-03-24T19:05:50;10.70;91.10
66128;DHT22;52925;52.436;-1.952;2023-03-24T19:07:11;10.80;91.00
66128;DHT22;52925;52.436;-1.952;2023-03-24T19:08:34;10.80;91.00
66128;DHT22;52925;52.436;-1.952;2023-03-24T19:09:54;10.80;90.90
66128;DHT22;52925;52.436;-1.952;2023-03-24T19:11:15;10.80;90.90
66128;DHT22;52925;52.436;-1.952;2023-03-24T19:12:35;10.80;91.00
66128;DHT22;52925;52.436;-1.952;2023-03-24T19:13:57;10.90;90.90
66128;DHT22;52925;52.436;-1.952;2023-03-24T19:15:18;10.80;90.90
66128;DHT22;52925;52.436;-1.952;2023-03-24T19:16:39;10.80;90.80
66128;DHT22;52925;52.436;-1.952;2023-03-24T19:18:01;10.80;90.90
66128;DHT22;52925;52.436;-1.952;2023-03-24T19:19:22;10.70;90.80
66128;DHT22;52925;52.436;-1.952;2023-03-24T19:20:42;10.70;90.90
66128;DHT22;52925;52.436;-1.952;2023-03-24T19:22:04;10.70;90.90
66128;DHT22;52925;52.436;-1.952;2023-03-24T19:23:27;10.70;91.00
66128;DHT22;52925;52.436;-1.952;2023-03-24T19:24:47;10.60;90.80
66128;DHT22;52925;52.436;-1.952;2023-03-24T19:26:08;10.60;90.70
66128;DHT22;52925;52.436;-1.952;2023-03-24T19:27:34;10.70;91.00
66128;DHT22;52925;52.436;-1.952;2023-03-24T19:28:57;10.60;90.90
66128;DHT22;52925;52.436;-1.952;2023-03-24T19:30:18;10.70;90.80
66128;DHT22;52925;52.436;-1.952;2023-03-24T19:31:45;10.70;90.90
66128;DHT22;52925;52.436;-1.952;2023-03-24T19:33:06;10.80;90.80
66128;DHT22;52925;52.436;-1.952;2023-03-24T19:34:27;10.70;90.70
66128;DHT22;52925;52.436;-1.952;2023-03-24T19:35:48;10.80;90.80
66128;DHT22;52925;52.436;-1.952;2023-03-24T19:37:09;10.70;90.80
66128;DHT22;52925;52.436;-1.952;2023-03-24T19:38:32;10.80;90.90
66128;DHT22;52925;52.436;-1.952;2023-03-24T19:39:52;10.70;90.70
66128;DHT22;52925;52.436;-1.952;2023-03-24T19:41:14;10.80;90.70
66128;DHT22;52925;52.436;-1.952;2023-03-24T19:42:35;10.80;90.80
66128;DHT22;52925;52.436;-1.952;2023-03-24T19:44:00;10.70;90.80
66128;DHT22;52925;52.436;-1.952;2023-03-24T19:45:21;10.70;90.70
66128;DHT22;52925;52.436;-1.952;2023-03-24T19:46:42;10.70;90.90
66128;DHT22;52925;52.436;-1.952;2023-03-24T19:48:03;10.70;90.60
66128;DHT22;52925;52.436;-1.952;2023-03-24T19:49:24;10.70;90.90
66128;DHT22;52925;52.436;-1.952;2023-03-24T19:50:49;10.70;90.80
66128;DHT22;52925;52.436;-1.952;2023-03-24T19:52:10;10.70;90.40
66128;DHT22;52925;52.436;-1.952;2023-03-24T19:53:31;10.70;90.60
66128;DHT22;52925;52.436;-1.952;2023-03-24T19:54:52;10.70;90.60
66128;DHT22;52925;52.436;-1.952;2023-03-24T19:56:13;10.70;90.80
66128;DHT22;52925;52.436;-1.952;2023-03-24T19:57:36;10.70;90.60
66128;DHT22;52925;52.436;-1.952;2023-03-24T19:58:59;10.70;90.60
66128;DHT22;52925;52.436;-1.952;2023-03-24T20:00:21;10.80;90.60
66128;DHT22;52925;52.436;-1.952;2023-03-24T20:01:41;10.70;90.20
66128;DHT22;52925;52.436;-1.952;2023-03-24T20:03:03;10.70;90.50
66128;DHT22;52925;52.436;-1.952;2023-03-24T20:04:25;10.60;90.50
66128;DHT22;52925;52.436;-1.952;2023-03-24T20:05:46;10.60;90.70
66128;DHT22;52925;52.436;-1.952;2023-03-24T20:07:07;10.60;90.60
66128;DHT22;52925;52.436;-1.952;2023-03-24T20:08:29;10.60;90.50
66128;DHT22;52925;52.436;-1.952;2023-03-24T20:09:50;10.70;90.50
66128;DHT22;52925;52.436;-1.952;2023-03-24T20:11:10;10.70;90.60
66128;DHT22;52925;52.436;-1.952;2023-03-24T20:12:31;10.80;90.70
66128;DHT22;52925;52.436;-1.952;2023-03-24T20:13:51;10.70;90.50
66128;DHT22;52925;52.436;-1.952;2023-03-24T20:15:14;10.60;90.60
66128;DHT22;52925;52.436;-1.952;2023-03-24T20:16:36;10.60;90.60
66128;DHT22;52925;52.436;-1.952;2023-03-24T20:17:57;10.60;90.50
66128;DHT22;52925;52.436;-1.952;2023-03-24T20:19:18;10.60;90.50
66128;DHT22;52925;52.436;-1.952;2023-03-24T20:20:38;10.70;90.60
66128;DHT22;52925;52.436;-1.952;2023-03-24T20:22:01;10.60;90.50
66128;DHT22;52925;52.436;-1.952;2023-03-24T20:23:22;10.60;90.70
66128;DHT22;52925;52.436;-1.952;2023-03-24T20:24:43;10.60;90.60
66128;DHT22;52925;52.436;-1.952;2023-03-24T20:26:08;10.60;90.60
66128;DHT22;52925;52.436;-1.952;2023-03-24T20:27:33;10.60;90.80
66128;DHT22;52925;52.436;-1.952;2023-03-24T20:28:58;10.60;90.60
66128;DHT22;52925;52.436;-1.952;2023-03-24T20:30:21;10.60;90.70
66128;DHT22;52925;52.436;-1.952;2023-03-24T20:31:46;10.60;90.60
66128;DHT22;52925;52.436;-1.952;2023-03-24T20:33:16;10.60;90.40
66128;DHT22;52925;52.436;-1.952;2023-03-24T20:34:38;10.60;90.50
66128;DHT22;52925;52.436;-1.952;2023-03-24T20:35:58;10.60;90.70
66128;DHT22;52925;52.436;-1.952;2023-03-24T20:37:20;10.60;90.70
66128;DHT22;52925;52.436;-1.952;2023-03-24T20:38:44;10.60;90.50
66128;DHT22;52925;52.436;-1.952;2023-03-24T20:40:06;10.50;90.50
66128;DHT22;52925;52.436;-1.952;2023-03-24T20:41:28;10.60;90.80
66128;DHT22;52925;52.436;-1.952;2023-03-24T20:42:50;10.50;90.60
66128;DHT22;52925;52.436;-1.952;2023-03-24T20:44:12;10.70;90.70
66128;DHT22;52925;52.436;-1.952;2023-03-24T20:45:34;10.60;90.50
66128;DHT22;52925;52.436;-1.952;2023-03-24T20:46:56;10.60;90.60
66128;DHT22;52925;52.436;-1.952;2023-03-24T20:48:19;10.70;90.60
66128;DHT22;52925;52.436;-1.952;2023-03-24T20:49:41;10.60;90.50
66128;DHT22;52925;52.436;-1.952;2023-03-24T20:51:03;10.60;90.60
66128;DHT22;52925;52.436;-1.952;2023-03-24T20:52:25;10.60;90.60
66128;DHT22;52925;52.436;-1.952;2023-03-24T20:53:47;10.50;90.50
66128;DHT22;52925;52.436;-1.952;2023-03-24T20:55:09;10.60;90.50
66128;DHT22;52925;52.436;-1.952;2023-03-24T20:56:31;10.60;90.40
66128;DHT22;52925;52.436;-1.952;2023-03-24T20:57:50;10.60;90.50
66128;DHT22;52925;52.436;-1.952;2023-03-24T20:59:12;10.50;90.40
66128;DHT22;52925;52.436;-1.952;2023-03-24T21:00:34;10.50;90.50
66128;DHT22;52925;52.436;-1.952;2023-03-24T21:01:56;10.50;90.70
66128;DHT22;52925;52.436;-1.952;2023-03-24T21:03:20;10.50;90.60
66128;DHT22;52925;52.436;-1.952;2023-03-24T21:04:42;10.60;90.50
66128;DHT22;52925;52.436;-1.952;2023-03-24T21:06:03;10.50;90.50
66128;DHT22;52925;52.436;-1.952;2023-03-24T21:07:25;10.50;90.30
66128;DHT22;52925;52.436;-1.952;2023-03-24T21:08:46;10.50;90.50
66128;DHT22;52925;52.436;-1.952;2023-03-24T21:10:07;10.60;90.60
66128;DHT22;52925;52.436;-1.952;2023-03-24T21:11:28;10.50;90.40
66128;DHT22;52925;52.436;-1.952;2023-03-24T21:12:50;10.50;90.10
66128;DHT22;52925;52.436;-1.952;2023-03-24T21:14:11;10.40;90.40
66128;DHT22;52925;52.436;-1.952;2023-03-24T21:15:33;10.50;90.10
66128;DHT22;52925;52.436;-1.952;2023-03-24T21:16:54;10.50;90.10
66128;DHT22;52925;52.436;-1.952;2023-03-24T21:18:15;10.40;90.00
66128;DHT22;52925;52.436;-1.952;2023-03-24T21:19:37;10.40;90.20
66128;DHT22;52925;52.436;-1.952;2023-03-24T21:21:05;10.40;90.30
66128;DHT22;52925;52.436;-1.952;2023-03-24T21:22:30;10.40;90.10
66128;DHT22;52925;52.436;-1.952;2023-03-24T21:24:06;10.30;90.10
66128;DHT22;52925;52.436;-1.952;2023-03-24T21:25:28;10.40;90.10
66128;DHT22;52925;52.436;-1.952;2023-03-24T21:26:50;10.40;90.10
66128;DHT22;52925;52.436;-1.952;2023-03-24T21:28:16;10.50;90.10
66128;DHT22;52925;52.436;-1.952;2023-03-24T21:29:37;10.50;89.80
66128;DHT22;52925;52.436;-1.952;2023-03-24T21:31:06;10.50;90.00
66128;DHT22;52925;52.436;-1.952;2023-03-24T21:32:27;10.50;89.70
66128;DHT22;52925;52.436;-1.952;2023-03-24T21:33:48;10.40;89.70
66128;DHT22;52925;52.436;-1.952;2023-03-24T21:35:10;10.40;89.80
66128;DHT22;52925;52.436;-1.952;2023-03-24T21:36:31;10.40;89.70
66128;DHT22;52925;52.436;-1.952;2023-03-24T21:37:52;10.40;89.90
66128;DHT22;52925;52.436;-1.952;2023-03-24T21:39:14;10.40;89.50
66128;DHT22;52925;52.436;-1.952;2023-03-24T21:40:36;10.50;89.50
66128;DHT22;52925;52.436;-1.952;2023-03-24T21:41:56;10.50;89.70
66128;DHT22;52925;52.436;-1.952;2023-03-24T21:43:17;10.50;89.50
66128;DHT22;52925;52.436;-1.952;2023-03-24T21:44:37;10.40;89.30
66128;DHT22;52925;52.436;-1.952;2023-03-24T21:46:02;10.30;90.00
66128;DHT22;52925;52.436;-1.952;2023-03-24T21:47:24;10.40;89.70
66128;DHT22;52925;52.436;-1.952;2023-03-24T21:48:45;10.40;89.60
66128;DHT22;52925;52.436;-1.952;2023-03-24T21:50:10;10.40;89.60
66128;DHT22;52925;52.436;-1.952;2023-03-24T21:51:32;10.40;89.60
66128;DHT22;52925;52.436;-1.952;2023-03-24T21:52:55;10.40;89.30
66128;DHT22;52925;52.436;-1.952;2023-03-24T21:54:15;10.40;89.20
66128;DHT22;52925;52.436;-1.952;2023-03-24T21:55:37;10.40;89.20
66128;DHT22;52925;52.436;-1.952;2023-03-24T21:56:58;10.30;89.40
66128;DHT22;52925;52.436;-1.952;2023-03-24T21:58:19;10.30;89.20
66128;DHT22;52925;52.436;-1.952;2023-03-24T21:59:41;10.30;89.60
66128;DHT22;52925;52.436;-1.952;2023-03-24T22:01:04;10.20;89.70
66128;DHT22;52925;52.436;-1.952;2023-03-24T22:02:24;10.30;89.40
66128;DHT22;52925;52.436;-1.952;2023-03-24T22:03:46;10.20;89.30
66128;DHT22;52925;52.436;-1.952;2023-03-24T22:05:07;10.20;89.50
66128;DHT22;52925;52.436;-1.952;2023-03-24T22:06:27;10.20;89.20
66128;DHT22;52925;52.436;-1.952;2023-03-24T22:07:49;10.30;89.60
66128;DHT22;52925;52.436;-1.952;2023-03-24T22:09:09;10.30;89.30
66128;DHT22;52925;52.436;-1.952;2023-03-24T22:10:30;10.30;88.90
66128;DHT22;52925;52.436;-1.952;2023-03-24T22:11:53;10.30;88.90
66128;DHT22;52925;52.436;-1.952;2023-03-24T22:13:16;10.20;89.20
66128;DHT22;52925;52.436;-1.952;2023-03-24T22:14:36;10.30;88.70
66128;DHT22;52925;52.436;-1.952;2023-03-24T22:15:58;10.20;89.20
66128;DHT22;52925;52.436;-1.952;2023-03-24T22:17:20;10.10;89.60
66128;DHT22;52925;52.436;-1.952;2023-03-24T22:18:41;10.20;88.90
66128;DHT22;52925;52.436;-1.952;2023-03-24T22:20:03;10.20;89.90
66128;DHT22;52925;52.436;-1.952;2023-03-24T22:21:24;10.20;89.10
66128;DHT22;52925;52.436;-1.952;2023-03-24T22:22:45;10.20;89.30
66128;DHT22;52925;52.436;-1.952;2023-03-24T22:24:05;10.20;89.00
66128;DHT22;52925;52.436;-1.952;2023-03-24T22:25:27;10.20;89.10
66128;DHT22;52925;52.436;-1.952;2023-03-24T22:26:47;10.20;89.20
66128;DHT22;52925;52.436;-1.952;2023-03-24T22:28:08;10.20;88.60
66128;DHT22;52925;52.436;-1.952;2023-03-24T22:29:28;10.30;89.20
66128;DHT22;52925;52.436;-1.952;2023-03-24T22:30:49;10.30;89.20
66128;DHT22;52925;52.436;-1.952;2023-03-24T22:32:09;10.20;88.90
66128;DHT22;52925;52.436;-1.952;2023-03-24T22:33:31;10.20;88.80
66128;DHT22;52925;52.436;-1.952;2023-03-24T22:34:52;10.20;88.80
66128;DHT22;52925;52.436;-1.952;2023-03-24T22:36:13;10.10;89.40
66128;DHT22;52925;52.436;-1.952;2023-03-24T22:37:34;10.20;88.70
66128;DHT22;52925;52.436;-1.952;2023-03-24T22:38:53;10.20;88.70
66128;DHT22;52925;52.436;-1.952;2023-03-24T22:40:14;10.10;89.30
66128;DHT22;52925;52.436;-1.952;2023-03-24T22:41:34;10.10;89.00
66128;DHT22;52925;52.436;-1.952;2023-03-24T22:42:55;10.10;88.50
66128;DHT22;52925;52.436;-1.952;2023-03-24T22:44:16;10.10;89.00
66128;DHT22;52925;52.436;-1.952;2023-03-24T22:45:38;10.10;89.00
66128;DHT22;52925;52.436;-1.952;2023-03-24T22:46:58;10.10;88.50
66128;DHT22;52925;52.436;-1.952;2023-03-24T22:48:20;10.20;89.00
66128;DHT22;52925;52.436;-1.952;2023-03-24T22:49:42;10.20;88.60
66128;DHT22;52925;52.436;-1.952;2023-03-24T22:51:03;10.20;88.50
66128;DHT22;52925;52.436;-1.952;2023-03-24T22:52:24;10.30;88.30
66128;DHT22;52925;52.436;-1.952;2023-03-24T22:53:45;10.20;88.20
66128;DHT22;52925;52.436;-1.952;2023-03-24T22:55:06;10.20;88.00
66128;DHT22;52925;52.436;-1.952;2023-03-24T22:56:28;10.20;88.40
66128;DHT22;52925;52.436;-1.952;2023-03-24T22:57:49;10.20;88.30
66128;DHT22;52925;52.436;-1.952;2023-03-24T22:59:09;10.20;88.30
66128;DHT22;52925;52.436;-1.952;2023-03-24T23:00:30;10.20;88.00
66128;DHT22;52925;52.436;-1.952;2023-03-24T23:01:51;10.20;88.20
66128;DHT22;52925;52.436;-1.952;2023-03-24T23:03:11;10.10;88.30
66128;DHT22;52925;52.436;-1.952;2023-03-24T23:04:31;10.10;88.10
66128;DHT22;52925;52.436;-1.952;2023-03-24T23:05:57;10.20;88.20
66128;DHT22;52925;52.436;-1.952;2023-03-24T23:07:19;10.20;87.70
66128;DHT22;52925;52.436;-1.952;2023-03-24T23:08:40;10.20;87.80
66128;DHT22;52925;52.436;-1.952;2023-03-24T23:10:02;10.20;88.20
66128;DHT22;52925;52.436;-1.952;2023-03-24T23:11:25;10.20;87.60
66128;DHT22;52925;52.436;-1.952;2023-03-24T23:12:45;10.10;87.80
66128;DHT22;52925;52.436;-1.952;2023-03-24T23:14:09;10.20;87.80
66128;DHT22;52925;52.436;-1.952;2023-03-24T23:15:30;10.10;87.80
66128;DHT22;52925;52.436;-1.952;2023-03-24T23:16:51;10.10;88.00
66128;DHT22;52925;52.436;-1.952;2023-03-24T23:18:12;10.10;87.80
66128;DHT22;52925;52.436;-1.952;2023-03-24T23:19:33;10.10;88.10
66128;DHT22;52925;52.436;-1.952;2023-03-24T23:21:03;10.10;88.50
66128;DHT22;52925;52.436;-1.952;2023-03-24T23:22:25;10.10;88.20
66128;DHT22;52925;52.436;-1.952;2023-03-24T23:23:45;10.10;87.90
66128;DHT22;52925;52.436;-1.952;2023-03-24T23:25:06;10.00;88.10
66128;DHT22;52925;52.436;-1.952;2023-03-24T23:26:27;10.10;88.40
66128;DHT22;52925;52.436;-1.952;2023-03-24T23:27:48;10.10;87.80
66128;DHT22;52925;52.436;-1.952;2023-03-24T23:29:09;10.10;87.80
66128;DHT22;52925;52.436;-1.952;2023-03-24T23:30:31;10.00;87.90
66128;DHT22;52925;52.436;-1.952;2023-03-24T23:31:52;10.10;88.00
66128;DHT22;52925;52.436;-1.952;2023-03-24T23:33:12;10.00;87.80
66128;DHT22;52925;52.436;-1.952;2023-03-24T23:34:35;10.00;87.50
66128;DHT22;52925;52.436;-1.952;2023-03-24T23:35:56;10.00;87.80
66128;DHT22;52925;52.436;-1.952;2023-03-24T23:37:18;10.00;88.10
66128;DHT22;52925;52.436;-1.952;2023-03-24T23:38:39;10.00;87.70
66128;DHT22;52925;52.436;-1.952;2023-03-24T23:40:02;10.00;87.90
66128;DHT22;52925;52.436;-1.952;2023-03-24T23:41:28;10.00;87.60
66128;DHT22;52925;52.436;-1.952;2023-03-24T23:42:48;10.00;87.70
66128;DHT22;52925;52.436;-1.952;2023-03-24T23:44:09;10.00;87.80
66128;DHT22;52925;52.436;-1.952;2023-03-24T23:45:30;10.00;87.90
66128;DHT22;52925;52.436;-1.952;2023-03-24T23:46:50;10.10;87.40
66128;DHT22;52925;52.436;-1.952;2023-03-24T23:48:11;10.00;88.00
66128;DHT22;52925;52.436;-1.952;2023-03-24T23:49:31;10.00;87.60
66128;DHT22;52925;52.436;-1.952;2023-03-24T23:50:55;10.00;88.00
66128;DHT22;52925;52.436;-1.952;2023-03-24T23:52:17;10.00;87.70
66128;DHT22;52925;52.436;-1.952;2023-03-24T23:53:37;10.10;87.80
66128;DHT22;52925;52.436;-1.952;2023-03-24T23:54:58;10.00;87.70
66128;DHT22;52925;52.436;-1.952;2023-03-24T23:56:20;10.00;87.80
66128;DHT22;52925;52.436;-1.952;2023-03-24T23:57:41;10.00;87.50
66128;DHT22;52925;52.436;-1.952;2023-03-24T23:59:02;10.00;87.60
